createdAt,value
2017-01-24T00:00:10.376Z,-1.3
2017-01-24T00:01:09.771Z,-1.35
2017-01-24T00:02:09.420Z,-1.37
2017-01-24T00:03:10.006Z,-1.32
2017-01-24T00:04:10.257Z,-1.37
2017-01-24T00:05:11.055Z,-1.37
2017-01-24T00:06:09.823Z,-1.29
2017-01-24T00:07:10.390Z,-1.43
2017-01-24T00:08:09.484Z,-1.32
2017-01-24T00:09:10.288Z,-1.35
2017-01-24T00:10:10.053Z,-1.35
2017-01-24T00:11:09.541Z,-1.3
2017-01-24T00:12:10.421Z,-1.32
2017-01-24T00:13:10.234Z,-1.46
2017-01-24T00:14:09.643Z,-1.46
2017-01-24T00:15:09.983Z,-1.35
2017-01-24T00:16:10.326Z,-1.37
2017-01-24T00:17:09.902Z,-1.38
2017-01-24T00:18:10.793Z,-1.33
2017-01-24T00:19:10.832Z,-1.37
2017-01-24T00:20:09.702Z,-1.38
2017-01-24T00:21:10.225Z,-1.35
2017-01-24T00:22:10.278Z,-1.35
2017-01-24T00:23:10.077Z,-1.35
2017-01-24T00:24:09.914Z,-1.32
2017-01-24T00:25:10.507Z,-1.32
2017-01-24T00:26:10.503Z,-1.35
2017-01-24T00:27:09.863Z,-1.29
2017-01-24T00:28:11.595Z,-1.29
2017-01-24T00:29:09.790Z,-1.38
2017-01-24T00:30:10.657Z,-1.32
2017-01-24T00:31:09.825Z,-1.32
2017-01-24T00:32:10.025Z,-1.35
2017-01-24T00:33:10.837Z,-1.3
2017-01-24T00:34:10.655Z,-1.32
2017-01-24T00:35:09.824Z,-1.33
2017-01-24T00:36:09.781Z,-1.33
2017-01-24T00:37:10.994Z,-1.32
2017-01-24T00:38:09.786Z,-1.33
2017-01-24T00:39:10.975Z,-1.35
2017-01-24T00:40:10.753Z,-1.32
2017-01-24T00:41:10.594Z,-1.41
2017-01-24T00:42:10.620Z,-1.33
2017-01-24T00:43:10.633Z,-1.32
2017-01-24T00:44:10.125Z,-1.33
2017-01-24T00:45:10.968Z,-1.37
2017-01-24T00:46:10.033Z,-1.27
2017-01-24T00:47:09.946Z,-1.3
2017-01-24T00:48:10.239Z,-1.32
2017-01-24T00:49:10.166Z,-1.37
2017-01-24T00:50:10.492Z,-1.32
2017-01-24T00:51:10.845Z,-1.3
2017-01-24T00:52:10.840Z,-1.26
2017-01-24T00:53:11.312Z,-1.32
2017-01-24T00:54:10.503Z,-1.32
2017-01-24T00:55:10.114Z,-1.4
2017-01-24T00:56:11.064Z,-1.33
2017-01-24T00:57:11.089Z,-1.35
2017-01-24T00:58:10.666Z,-1.37
2017-01-24T00:59:10.562Z,-1.41
2017-01-24T01:00:10.228Z,-1.37
2017-01-24T01:01:10.665Z,-1.37
2017-01-24T01:02:11.653Z,-1.37
2017-01-24T01:03:10.121Z,-1.35
2017-01-24T01:04:10.781Z,-1.26
2017-01-24T01:05:10.153Z,-1.37
2017-01-24T01:06:11.361Z,-1.38
2017-01-24T01:07:11.175Z,-1.33
2017-01-24T01:08:10.252Z,-1.35
2017-01-24T01:09:11.427Z,-1.33
2017-01-24T01:10:11.658Z,-1.38
2017-01-24T01:11:11.525Z,-1.3
2017-01-24T01:12:10.846Z,-1.32
2017-01-24T01:13:11.158Z,-1.35
2017-01-24T01:14:10.997Z,-1.29
2017-01-24T01:15:10.993Z,-1.32
2017-01-24T01:16:11.112Z,-1.38
2017-01-24T01:17:10.717Z,-1.37
2017-01-24T01:18:10.732Z,-1.33
2017-01-24T01:19:10.584Z,-1.4
2017-01-24T01:20:11.537Z,-1.37
2017-01-24T01:21:11.332Z,-1.33
2017-01-24T01:22:12.064Z,-1.32
2017-01-24T01:23:10.893Z,-1.29
2017-01-24T01:24:11.652Z,-1.37
2017-01-24T01:25:11.516Z,-1.32
2017-01-24T01:26:12.252Z,-1.27
2017-01-24T01:27:10.844Z,-1.35
2017-01-24T01:28:11.545Z,-1.32
2017-01-24T01:29:11.038Z,-1.4
2017-01-24T01:30:10.388Z,-1.38
2017-01-24T01:31:10.530Z,-1.29
2017-01-24T01:32:11.317Z,-1.33
2017-01-24T01:33:11.019Z,-1.35
2017-01-24T01:34:11.622Z,-1.33
2017-01-24T01:35:10.855Z,-1.29
2017-01-24T01:36:10.670Z,-1.35
2017-01-24T01:37:12.338Z,-1.35
2017-01-24T01:38:11.511Z,-1.44
2017-01-24T01:39:11.090Z,-1.33
2017-01-24T01:40:11.514Z,-1.4
2017-01-24T01:41:11.219Z,-1.3
2017-01-24T01:42:11.632Z,-1.35
2017-01-24T01:43:10.941Z,-1.44
2017-01-24T01:44:12.012Z,-1.3
2017-01-24T01:45:11.759Z,-1.33
2017-01-24T01:46:10.939Z,-1.32
2017-01-24T01:47:11.400Z,-1.3
2017-01-24T01:48:11.503Z,-1.37
2017-01-24T01:49:11.956Z,-1.33
2017-01-24T01:50:11.279Z,-1.44
2017-01-24T01:51:11.979Z,-1.44
2017-01-24T01:52:10.830Z,-1.35
2017-01-24T01:53:11.269Z,-1.35
2017-01-24T01:54:11.329Z,-1.33
2017-01-24T01:55:10.986Z,-1.43
2017-01-24T01:56:11.535Z,-1.37
2017-01-24T01:57:11.324Z,-1.46
2017-01-24T01:58:11.120Z,-1.41
2017-01-24T01:59:11.217Z,-1.46
2017-01-24T02:00:11.386Z,-1.43
2017-01-24T02:01:11.356Z,-1.46
2017-01-24T02:02:11.095Z,-1.54
2017-01-24T02:03:11.814Z,-1.41
2017-01-24T02:04:11.832Z,-1.56
2017-01-24T02:05:11.413Z,-1.59
2017-01-24T02:06:12.021Z,-1.54
2017-01-24T02:07:12.346Z,-1.51
2017-01-24T02:08:11.223Z,-1.59
2017-01-24T02:09:11.289Z,-1.53
2017-01-24T02:10:11.708Z,-1.44
2017-01-24T02:11:11.639Z,-1.46
2017-01-24T02:12:11.888Z,-1.5
2017-01-24T02:13:12.152Z,-1.48
2017-01-24T02:14:11.811Z,-1.58
2017-01-24T02:15:11.138Z,-1.56
2017-01-24T02:16:11.221Z,-1.53
2017-01-24T02:17:11.291Z,-1.51
2017-01-24T02:18:11.917Z,-1.44
2017-01-24T02:19:11.938Z,-1.53
2017-01-24T02:20:11.758Z,-1.44
2017-01-24T02:21:11.602Z,-1.43
2017-01-24T02:22:11.244Z,-1.44
2017-01-24T02:23:11.645Z,-1.5
2017-01-24T02:24:12.168Z,-1.51
2017-01-24T02:25:11.877Z,-1.47
2017-01-24T02:26:11.119Z,-1.44
2017-01-24T02:27:12.029Z,-1.53
2017-01-24T02:28:11.410Z,-1.47
2017-01-24T02:29:12.053Z,-1.4
2017-01-24T02:30:11.634Z,-1.43
2017-01-24T02:31:11.079Z,-1.56
2017-01-24T02:32:10.973Z,-1.51
2017-01-24T02:33:12.050Z,-1.43
2017-01-24T02:34:11.982Z,-1.41
2017-01-24T02:35:11.863Z,-1.4
2017-01-24T02:36:12.425Z,-1.53
2017-01-24T02:37:11.540Z,-1.47
2017-01-24T02:38:11.847Z,-1.53
2017-01-24T02:39:12.331Z,-1.53
2017-01-24T02:40:12.550Z,-1.58
2017-01-24T02:41:11.227Z,-1.53
2017-01-24T02:42:12.358Z,-1.54
2017-01-24T02:43:11.410Z,-1.54
2017-01-24T02:44:11.846Z,-1.62
2017-01-24T02:45:11.355Z,-1.59
2017-01-24T02:46:11.993Z,-1.61
2017-01-24T02:47:11.765Z,-1.53
2017-01-24T02:48:11.927Z,-1.64
2017-01-24T02:49:12.561Z,-1.65
2017-01-24T02:50:11.372Z,-1.62
2017-01-24T02:51:11.840Z,-1.74
2017-01-24T02:52:11.316Z,-1.69
2017-01-24T02:53:11.805Z,-1.68
2017-01-24T02:54:11.670Z,-1.68
2017-01-24T02:55:12.727Z,-1.76
2017-01-24T02:56:12.067Z,-1.77
2017-01-24T02:57:11.895Z,-1.76
2017-01-24T02:58:11.760Z,-1.84
2017-01-24T02:59:11.836Z,-1.86
2017-01-24T03:00:12.667Z,-1.98
2017-01-24T03:01:12.502Z,-1.84
2017-01-24T03:02:11.961Z,-2.01
2017-01-24T03:03:11.779Z,-1.92
2017-01-24T03:04:11.771Z,-1.95
2017-01-24T03:05:11.265Z,-1.94
2017-01-24T03:06:12.162Z,-1.9
2017-01-24T03:07:11.645Z,-1.89
2017-01-24T03:08:12.742Z,-1.97
2017-01-24T03:09:11.878Z,-2.01
2017-01-24T03:10:11.587Z,-2
2017-01-24T03:11:12.250Z,-2.02
2017-01-24T03:12:12.599Z,-1.98
2017-01-24T03:13:12.234Z,-1.97
2017-01-24T03:14:12.103Z,-2.01
2017-01-24T03:15:12.205Z,-2.1
2017-01-24T03:16:11.743Z,-2.07
2017-01-24T03:17:11.487Z,-2.04
2017-01-24T03:18:11.920Z,-2.04
2017-01-24T03:19:12.060Z,-2.01
2017-01-24T03:20:12.151Z,-2.05
2017-01-24T03:21:11.788Z,-2.07
2017-01-24T03:22:12.633Z,-2.05
2017-01-24T03:23:12.500Z,-2.07
2017-01-24T03:24:11.787Z,-2.08
2017-01-24T03:25:12.902Z,-2.13
2017-01-24T03:26:12.352Z,-2.15
2017-01-24T03:27:12.058Z,-2.18
2017-01-24T03:28:12.555Z,-2.18
2017-01-24T03:29:12.409Z,-2.15
2017-01-24T03:30:12.186Z,-2.13
2017-01-24T03:31:12.001Z,-2.15
2017-01-24T03:32:11.542Z,-2.22
2017-01-24T03:33:12.797Z,-2.25
2017-01-24T03:34:11.943Z,-2.28
2017-01-24T03:35:12.769Z,-2.26
2017-01-24T03:36:12.709Z,-2.25
2017-01-24T03:37:13.962Z,-2.34
2017-01-24T03:38:12.047Z,-2.28
2017-01-24T03:39:12.063Z,-2.28
2017-01-24T03:40:13.615Z,-2.28
2017-01-24T03:41:13.677Z,-2.34
2017-01-24T03:42:12.584Z,-2.21
2017-01-24T03:43:12.312Z,-2.23
2017-01-24T03:44:12.158Z,-2.23
2017-01-24T03:45:12.357Z,-2.32
2017-01-24T03:46:12.540Z,-2.34
2017-01-24T03:47:12.757Z,-2.32
2017-01-24T03:48:11.931Z,-2.35
2017-01-24T03:49:12.880Z,-2.4
2017-01-24T03:50:12.269Z,-2.32
2017-01-24T03:51:14.234Z,-2.32
2017-01-24T03:52:12.725Z,-2.26
2017-01-24T03:53:13.526Z,-2.26
2017-01-24T03:54:12.233Z,-2.3
2017-01-24T03:55:12.540Z,-2.25
2017-01-24T03:56:12.096Z,-2.25
2017-01-24T03:57:12.234Z,-2.16
2017-01-24T03:58:12.447Z,-2.32
2017-01-24T03:59:12.782Z,-2.28
2017-01-24T04:00:12.200Z,-2.23
2017-01-24T04:01:12.116Z,-2.3
2017-01-24T04:02:13.439Z,-2.28
2017-01-24T04:03:12.190Z,-2.25
2017-01-24T04:04:13.069Z,-2.25
2017-01-24T04:05:13.614Z,-2.26
2017-01-24T04:06:13.684Z,-2.16
2017-01-24T04:07:13.594Z,-2.25
2017-01-24T04:08:12.676Z,-2.3
2017-01-24T04:09:13.579Z,-2.19
2017-01-24T04:10:13.051Z,-2.34
2017-01-24T04:11:13.606Z,-2.19
2017-01-24T04:12:12.894Z,-2.16
2017-01-24T04:13:13.457Z,-2.16
2017-01-24T04:14:12.600Z,-2.15
2017-01-24T04:15:12.940Z,-2.15
2017-01-24T04:16:12.615Z,-2.15
2017-01-24T04:17:13.073Z,-2.19
2017-01-24T04:18:12.597Z,-2.12
2017-01-24T04:19:13.587Z,-2.08
2017-01-24T04:20:12.992Z,-2.01
2017-01-24T04:21:13.986Z,-2
2017-01-24T04:22:12.984Z,-2.01
2017-01-24T04:23:12.814Z,-2.1
2017-01-24T04:24:12.640Z,-2.05
2017-01-24T04:25:12.598Z,-2.07
2017-01-24T04:26:12.692Z,-2
2017-01-24T04:27:12.706Z,-2.02
2017-01-24T04:28:12.895Z,-2.07
2017-01-24T04:29:13.006Z,-2.01
2017-01-24T04:30:12.877Z,-2.01
2017-01-24T04:31:13.372Z,-2.12
2017-01-24T04:32:12.669Z,-1.97
2017-01-24T04:33:12.859Z,-2.02
2017-01-24T04:34:12.788Z,-2.02
2017-01-24T04:35:13.503Z,-1.97
2017-01-24T04:36:13.418Z,-1.97
2017-01-24T04:37:13.574Z,-1.94
2017-01-24T04:38:13.865Z,-2.01
2017-01-24T04:39:13.593Z,-1.97
2017-01-24T04:40:13.511Z,-1.97
2017-01-24T04:41:12.449Z,-1.97
2017-01-24T04:42:13.735Z,-1.98
2017-01-24T04:43:12.837Z,-1.98
2017-01-24T04:44:14.147Z,-1.86
2017-01-24T04:45:12.982Z,-1.95
2017-01-24T04:46:12.436Z,-1.94
2017-01-24T04:47:13.095Z,-2.02
2017-01-24T04:48:13.601Z,-1.9
2017-01-24T04:49:12.632Z,-1.95
2017-01-24T04:50:13.751Z,-2
2017-01-24T04:51:13.533Z,-1.97
2017-01-24T04:52:12.923Z,-1.95
2017-01-24T04:53:12.750Z,-1.86
2017-01-24T04:54:12.574Z,-1.89
2017-01-24T04:55:13.624Z,-1.87
2017-01-24T04:56:12.692Z,-1.86
2017-01-24T04:57:13.148Z,-1.9
2017-01-24T04:58:14.006Z,-1.92
2017-01-24T04:59:13.568Z,-1.9
2017-01-24T05:00:12.959Z,-1.87
2017-01-24T05:01:13.528Z,-1.89
2017-01-24T05:02:13.580Z,-1.92
2017-01-24T05:03:14.267Z,-1.89
2017-01-24T05:04:12.850Z,-1.86
2017-01-24T05:05:13.098Z,-1.89
2017-01-24T05:06:13.090Z,-1.86
2017-01-24T05:07:13.646Z,-1.94
2017-01-24T05:08:13.820Z,-1.86
2017-01-24T05:09:12.938Z,-1.86
2017-01-24T05:10:12.884Z,-1.87
2017-01-24T05:11:13.500Z,-1.92
2017-01-24T05:12:14.199Z,-1.89
2017-01-24T05:13:14.271Z,-1.92
2017-01-24T05:14:13.887Z,-1.87
2017-01-24T05:15:14.312Z,-1.89
2017-01-24T05:16:13.367Z,-1.89
2017-01-24T05:17:14.056Z,-1.87
2017-01-24T05:18:12.881Z,-1.86
2017-01-24T05:19:13.323Z,-1.86
2017-01-24T05:20:14.430Z,-1.87
2017-01-24T05:21:13.365Z,-1.84
2017-01-24T05:22:14.102Z,-1.86
2017-01-24T05:23:13.898Z,-1.86
2017-01-24T05:24:13.297Z,-1.89
2017-01-24T05:25:14.019Z,-1.86
2017-01-24T05:26:14.696Z,-1.86
2017-01-24T05:27:14.131Z,-1.87
2017-01-24T05:28:14.263Z,-1.92
2017-01-24T05:29:14.335Z,-1.92
2017-01-24T05:30:14.823Z,-1.9
2017-01-24T05:31:14.402Z,-1.97
2017-01-24T05:32:13.647Z,-1.98
2017-01-24T05:33:14.360Z,-2.05
2017-01-24T05:34:13.736Z,-2.04
2017-01-24T05:35:14.238Z,-2.05
2017-01-24T05:36:13.879Z,-2.08
2017-01-24T05:37:13.650Z,-2.16
2017-01-24T05:38:13.661Z,-2.28
2017-01-24T05:39:14.053Z,-2.28
2017-01-24T05:40:14.619Z,-2.23
2017-01-24T05:41:14.891Z,-2.38
2017-01-24T05:42:13.986Z,-2.25
2017-01-24T05:43:14.860Z,-2.3
2017-01-24T05:44:14.017Z,-2.23
2017-01-24T05:45:14.298Z,-2.34
2017-01-24T05:46:14.343Z,-2.35
2017-01-24T05:47:14.571Z,-2.37
2017-01-24T05:48:14.140Z,-2.37
2017-01-24T05:49:13.523Z,-2.38
2017-01-24T05:50:13.321Z,-2.32
2017-01-24T05:51:14.111Z,-2.28
2017-01-24T05:52:14.864Z,-2.18
2017-01-24T05:53:13.821Z,-2.19
2017-01-24T05:54:14.584Z,-2.05
2017-01-24T05:55:14.107Z,-2.21
2017-01-24T05:56:13.923Z,-2.08
2017-01-24T05:57:14.064Z,-2.15
2017-01-24T05:58:13.873Z,-2.1
2017-01-24T05:59:13.944Z,-2.04
2017-01-24T06:00:14.541Z,-2.08
2017-01-24T06:01:14.869Z,-2.01
2017-01-24T06:02:13.895Z,-2.04
2017-01-24T06:03:14.221Z,-2.02
2017-01-24T06:04:14.544Z,-2
2017-01-24T06:05:14.694Z,-2.04
2017-01-24T06:06:14.866Z,-2.04
2017-01-24T06:07:14.942Z,-1.95
2017-01-24T06:08:14.286Z,-1.84
2017-01-24T06:09:13.982Z,-1.94
2017-01-24T06:10:14.151Z,-2.01
2017-01-24T06:11:14.027Z,-1.95
2017-01-24T06:12:14.848Z,-1.9
2017-01-24T06:13:15.428Z,-1.9
2017-01-24T06:14:14.934Z,-1.9
2017-01-24T06:15:14.556Z,-2.01
2017-01-24T06:16:14.358Z,-1.95
2017-01-24T06:17:14.935Z,-1.92
2017-01-24T06:18:13.539Z,-1.94
2017-01-24T06:19:13.699Z,-1.84
2017-01-24T06:20:14.039Z,-1.83
2017-01-24T06:21:14.265Z,-1.9
2017-01-24T06:22:13.863Z,-1.9
2017-01-24T06:23:14.573Z,-1.89
2017-01-24T06:24:14.770Z,-1.86
2017-01-24T06:25:14.220Z,-1.9
2017-01-24T06:26:14.218Z,-1.89
2017-01-24T06:27:13.641Z,-1.87
2017-01-24T06:28:13.749Z,-1.89
2017-01-24T06:29:14.675Z,-1.76
2017-01-24T06:30:14.494Z,-1.79
2017-01-24T06:31:14.536Z,-1.86
2017-01-24T06:32:14.180Z,-1.8
2017-01-24T06:33:14.299Z,-1.86
2017-01-24T06:34:15.169Z,-1.84
2017-01-24T06:35:14.756Z,-1.77
2017-01-24T06:36:14.580Z,-1.77
2017-01-24T06:37:14.398Z,-1.71
2017-01-24T06:38:13.991Z,-1.74
2017-01-24T06:39:14.456Z,-1.68
2017-01-24T06:40:15.130Z,-1.74
2017-01-24T06:41:14.516Z,-1.65
2017-01-24T06:42:14.545Z,-1.64
2017-01-24T06:43:15.799Z,-1.71
2017-01-24T06:44:14.579Z,-1.65
2017-01-24T06:45:14.650Z,-1.68
2017-01-24T06:46:14.319Z,-1.72
2017-01-24T06:47:14.507Z,-1.77
2017-01-24T06:48:14.794Z,-1.74
2017-01-24T06:49:15.009Z,-1.77
2017-01-24T06:50:14.494Z,-1.64
2017-01-24T06:51:14.928Z,-1.69
2017-01-24T06:52:13.787Z,-1.76
2017-01-24T06:53:14.435Z,-1.74
2017-01-24T06:54:14.280Z,-1.76
2017-01-24T06:55:15.142Z,-1.71
2017-01-24T06:56:15.228Z,-1.69
2017-01-24T06:57:14.179Z,-1.69
2017-01-24T06:58:14.455Z,-1.71
2017-01-24T06:59:14.327Z,-1.69
2017-01-24T07:00:14.992Z,-1.82
2017-01-24T07:01:13.976Z,-1.72
2017-01-24T07:02:14.038Z,-1.82
2017-01-24T07:03:14.046Z,-1.72
2017-01-24T07:04:14.346Z,-1.77
2017-01-24T07:05:14.769Z,-1.82
2017-01-24T07:06:14.550Z,-1.77
2017-01-24T07:07:14.910Z,-1.9
2017-01-24T07:08:14.283Z,-1.87
2017-01-24T07:09:15.381Z,-1.9
2017-01-24T07:10:14.289Z,-1.87
2017-01-24T07:11:14.209Z,-1.9
2017-01-24T07:12:14.219Z,-1.89
2017-01-24T07:13:14.444Z,-1.97
2017-01-24T07:14:15.252Z,-1.89
2017-01-24T07:15:15.205Z,-2.01
2017-01-24T07:16:14.138Z,-1.95
2017-01-24T07:17:14.191Z,-1.94
2017-01-24T07:18:14.190Z,-1.95
2017-01-24T07:19:15.278Z,-1.89
2017-01-24T07:20:15.349Z,-1.92
2017-01-24T07:21:14.254Z,-1.94
2017-01-24T07:22:14.605Z,-1.94
2017-01-24T07:23:14.697Z,-1.86
2017-01-24T07:24:14.178Z,-1.86
2017-01-24T07:25:14.349Z,-1.82
2017-01-24T07:26:15.130Z,-1.95
2017-01-24T07:27:16.149Z,-1.84
2017-01-24T07:28:14.340Z,-1.89
2017-01-24T07:29:15.034Z,-1.87
2017-01-24T07:30:15.249Z,-1.79
2017-01-24T07:31:14.283Z,-1.74
2017-01-24T07:32:14.712Z,-1.77
2017-01-24T07:33:14.870Z,-1.72
2017-01-24T07:34:15.297Z,-1.72
2017-01-24T07:35:16.059Z,-1.71
2017-01-24T07:36:14.702Z,-1.65
2017-01-24T07:37:15.021Z,-1.68
2017-01-24T07:38:15.547Z,-1.72
2017-01-24T07:39:14.855Z,-1.71
2017-01-24T07:40:14.493Z,-1.66
2017-01-24T07:41:14.677Z,-1.68
2017-01-24T07:42:15.720Z,-1.71
2017-01-24T07:43:16.389Z,-1.71
2017-01-24T07:44:14.383Z,-1.62
2017-01-24T07:45:14.954Z,-1.74
2017-01-24T07:46:14.912Z,-1.58
2017-01-24T07:47:14.898Z,-1.59
2017-01-24T07:48:14.424Z,-1.71
2017-01-24T07:49:15.111Z,-1.59
2017-01-24T07:50:15.718Z,-1.59
2017-01-24T07:51:15.889Z,-1.56
2017-01-24T07:52:14.690Z,-1.59
2017-01-24T07:53:15.447Z,-1.61
2017-01-24T07:54:14.452Z,-1.59
2017-01-24T07:55:15.337Z,-1.59
2017-01-24T07:56:14.585Z,-1.54
2017-01-24T07:57:15.120Z,-1.58
2017-01-24T07:58:14.549Z,-1.58
2017-01-24T07:59:16.451Z,-1.56
2017-01-24T08:00:14.592Z,-1.53
2017-01-24T08:01:14.992Z,-1.48
2017-01-24T08:02:15.576Z,-1.47
2017-01-24T08:03:14.933Z,-1.41
2017-01-24T08:04:16.195Z,-1.41
2017-01-24T08:05:16.206Z,-1.44
2017-01-24T08:06:15.697Z,-1.41
2017-01-24T08:07:15.536Z,-1.4
2017-01-24T08:08:14.777Z,-1.37
2017-01-24T08:09:15.082Z,-1.43
2017-01-24T08:10:15.495Z,-1.3
2017-01-24T08:11:15.341Z,-1.3
2017-01-24T08:12:16.526Z,-1.32
2017-01-24T08:13:15.870Z,-1.32
2017-01-24T08:14:15.586Z,-1.32
2017-01-24T08:15:14.891Z,-1.29
2017-01-24T08:16:14.950Z,-1.26
2017-01-24T08:17:15.193Z,-1.25
2017-01-24T08:18:15.988Z,-1.23
2017-01-24T08:19:15.954Z,-1.22
2017-01-24T08:20:15.191Z,-1.2
2017-01-24T08:21:15.141Z,-1.15
2017-01-24T08:22:14.567Z,-1.14
2017-01-24T08:23:15.778Z,-1.11
2017-01-24T08:24:15.343Z,-1.14
2017-01-24T08:25:15.157Z,-1.07
2017-01-24T08:26:14.715Z,-1.11
2017-01-24T08:27:15.861Z,-1.11
2017-01-24T08:28:16.280Z,-0.99
2017-01-24T08:29:15.904Z,-1.04
2017-01-24T08:30:15.481Z,-1.04
2017-01-24T08:31:15.461Z,-1.07
2017-01-24T08:32:14.907Z,-1.01
2017-01-24T08:33:16.225Z,-0.97
2017-01-24T08:34:16.362Z,-1.05
2017-01-24T08:35:16.341Z,-0.93
2017-01-24T08:36:15.659Z,-0.99
2017-01-24T08:37:15.764Z,-1.04
2017-01-24T08:38:15.640Z,-1.07
2017-01-24T08:39:15.711Z,-0.93
2017-01-24T08:40:15.389Z,-1.05
2017-01-24T08:41:15.388Z,-1.01
2017-01-24T08:42:16.206Z,-0.9
2017-01-24T08:43:15.509Z,-0.89
2017-01-24T08:44:15.365Z,-0.93
2017-01-24T08:45:15.495Z,-0.94
2017-01-24T08:46:15.046Z,-0.9
2017-01-24T08:47:15.332Z,-0.82
2017-01-24T08:48:15.265Z,-0.91
2017-01-24T08:49:16.094Z,-0.82
2017-01-24T08:50:15.911Z,-0.91
2017-01-24T08:51:16.178Z,-0.89
2017-01-24T08:52:16.066Z,-0.89
2017-01-24T08:53:15.191Z,-0.89
2017-01-24T08:54:15.180Z,-0.91
2017-01-24T08:55:15.580Z,-0.85
2017-01-24T08:56:15.548Z,-0.83
2017-01-24T08:57:16.152Z,-0.89
2017-01-24T08:58:16.492Z,-0.85
2017-01-24T08:59:15.423Z,-0.93
2017-01-24T09:00:16.247Z,-0.78
2017-01-24T09:01:15.985Z,-0.82
2017-01-24T09:02:16.377Z,-0.89
2017-01-24T09:03:15.552Z,-0.74
2017-01-24T09:04:15.917Z,-0.71
2017-01-24T09:05:15.361Z,-0.75
2017-01-24T09:06:16.382Z,-0.72
2017-01-24T09:07:16.309Z,-0.62
2017-01-24T09:08:16.019Z,-0.68
2017-01-24T09:09:16.180Z,-0.62
2017-01-24T09:10:15.821Z,-0.74
2017-01-24T09:11:16.784Z,-0.72
2017-01-24T09:12:15.865Z,-0.77
2017-01-24T09:13:16.183Z,-0.77
2017-01-24T09:14:15.543Z,-0.77
2017-01-24T09:15:15.480Z,-0.74
2017-01-24T09:16:16.675Z,-0.71
2017-01-24T09:17:15.591Z,-0.75
2017-01-24T09:18:16.214Z,-0.7
2017-01-24T09:19:15.804Z,-0.7
2017-01-24T09:20:15.934Z,-0.67
2017-01-24T09:21:15.648Z,-0.71
2017-01-24T09:22:15.850Z,-0.77
2017-01-24T09:23:15.196Z,-0.74
2017-01-24T09:24:15.674Z,-0.67
2017-01-24T09:25:16.757Z,-0.78
2017-01-24T09:26:16.269Z,-0.7
2017-01-24T09:27:16.635Z,-0.71
2017-01-24T09:28:16.487Z,-0.62
2017-01-24T09:29:16.165Z,-0.61
2017-01-24T09:30:16.467Z,-0.72
2017-01-24T09:31:16.624Z,-0.65
2017-01-24T09:32:16.026Z,-0.71
2017-01-24T09:33:15.611Z,-0.62
2017-01-24T09:34:15.592Z,-0.68
2017-01-24T09:35:16.306Z,-0.65
2017-01-24T09:36:16.074Z,-0.57
2017-01-24T09:37:16.663Z,-0.57
2017-01-24T09:38:16.254Z,-0.65
2017-01-24T09:39:15.972Z,-0.64
2017-01-24T09:40:16.366Z,-0.64
2017-01-24T09:41:16.268Z,-0.56
2017-01-24T09:42:16.022Z,-0.54
2017-01-24T09:43:15.666Z,-0.5
2017-01-24T09:44:16.392Z,-0.53
2017-01-24T09:45:16.902Z,-0.56
2017-01-24T09:46:16.295Z,-0.56
2017-01-24T09:47:16.363Z,-0.56
2017-01-24T09:48:16.240Z,-0.57
2017-01-24T09:49:16.991Z,-0.56
2017-01-24T09:50:15.747Z,-0.53
2017-01-24T09:51:16.967Z,-0.59
2017-01-24T09:52:16.863Z,-0.59
2017-01-24T09:53:16.588Z,-0.54
2017-01-24T09:54:16.416Z,-0.57
2017-01-24T09:55:16.358Z,-0.56
2017-01-24T09:56:16.764Z,-0.56
2017-01-24T09:57:17.510Z,-0.57
2017-01-24T09:58:16.403Z,-0.56
2017-01-24T09:59:16.160Z,-0.53
2017-01-24T10:00:16.333Z,-0.49
2017-01-24T10:01:16.515Z,-0.46
2017-01-24T10:02:17.048Z,-0.53
2017-01-24T10:03:16.334Z,-0.56
2017-01-24T10:04:16.145Z,-0.44
2017-01-24T10:05:16.851Z,-0.47
2017-01-24T10:06:16.391Z,-0.44
2017-01-24T10:07:17.065Z,-0.43
2017-01-24T10:08:16.830Z,-0.39
2017-01-24T10:09:16.233Z,-0.44
2017-01-24T10:10:16.087Z,-0.38
2017-01-24T10:11:16.526Z,-0.38
2017-01-24T10:12:16.782Z,-0.25
2017-01-24T10:13:17.348Z,-0.34
2017-01-24T10:14:16.224Z,-0.28
2017-01-24T10:15:15.833Z,-0.26
2017-01-24T10:16:17.024Z,-0.13
2017-01-24T10:17:16.988Z,-0.13
2017-01-24T10:18:16.742Z,-0.18
2017-01-24T10:19:16.464Z,-0.11
2017-01-24T10:20:16.957Z,-0.15
2017-01-24T10:21:16.573Z,-0.11
2017-01-24T10:22:16.890Z,-0.13
2017-01-24T10:23:16.691Z,-0.2
2017-01-24T10:24:16.683Z,-0.15
2017-01-24T10:25:16.249Z,-0.14
2017-01-24T10:26:16.825Z,-0.02
2017-01-24T10:27:16.928Z,-0.06
2017-01-24T10:28:17.429Z,-0.1
2017-01-24T10:29:16.763Z,-0.13
2017-01-24T10:30:16.806Z,-0.11
2017-01-24T10:31:17.313Z,-0.08
2017-01-24T10:32:16.978Z,-0.11
2017-01-24T10:33:17.276Z,-0.23
2017-01-24T10:34:16.594Z,-0.21
2017-01-24T10:35:16.622Z,-0.15
2017-01-24T10:36:18.312Z,-0.18
2017-01-24T10:37:16.542Z,-0.15
2017-01-24T10:38:16.870Z,-0.17
2017-01-24T10:39:16.782Z,-0.17
2017-01-24T10:40:16.258Z,-0.21
2017-01-24T10:41:16.751Z,-0.13
2017-01-24T10:42:17.465Z,-0.17
2017-01-24T10:43:16.900Z,-0.1
2017-01-24T10:44:16.789Z,-0.14
2017-01-24T10:45:16.628Z,-0.21
2017-01-24T10:46:18.599Z,-0.13
2017-01-24T10:47:18.057Z,-0.14
2017-01-24T10:48:16.565Z,-0.17
2017-01-24T10:49:17.431Z,-0.15
2017-01-24T10:50:16.428Z,-0.14
2017-01-24T10:51:17.035Z,-0.06
2017-01-24T10:52:16.524Z,-0.07
2017-01-24T10:53:16.739Z,-0.02
2017-01-24T10:54:17.562Z,-0.02
2017-01-24T10:55:17.175Z,-0.1
2017-01-24T10:56:18.171Z,-0.06
2017-01-24T10:57:17.265Z,-0.07
2017-01-24T10:58:16.946Z,-0.14
2017-01-24T10:59:17.834Z,-0.1
2017-01-24T11:00:17.690Z,-0.08
2017-01-24T11:01:17.498Z,0
2017-01-24T11:02:16.894Z,-0.02
2017-01-24T11:03:17.293Z,-0.11
2017-01-24T11:04:17.697Z,-0.03
2017-01-24T11:05:16.885Z,-0.02
2017-01-24T11:06:17.226Z,0.01
2017-01-24T11:07:17.954Z,0.04
2017-01-24T11:08:17.300Z,0.16
2017-01-24T11:09:17.760Z,0.12
2017-01-24T11:10:17.458Z,0.12
2017-01-24T11:11:17.761Z,0.11
2017-01-24T11:12:18.074Z,0.16
2017-01-24T11:13:17.626Z,0.19
2017-01-24T11:14:17.000Z,0.12
2017-01-24T11:15:17.303Z,0.15
2017-01-24T11:16:18.353Z,0.12
2017-01-24T11:17:17.584Z,0.08
2017-01-24T11:18:16.988Z,0.07
2017-01-24T11:19:17.581Z,0.18
2017-01-24T11:20:17.575Z,0.21
2017-01-24T11:21:17.039Z,0.25
2017-01-24T11:22:17.633Z,0.36
2017-01-24T11:23:18.922Z,0.28
2017-01-24T11:24:17.058Z,0.25
2017-01-24T11:25:17.651Z,0.22
2017-01-24T11:26:17.765Z,0.32
2017-01-24T11:27:17.826Z,0.37
2017-01-24T11:28:17.470Z,0.25
2017-01-24T11:29:17.304Z,0.19
2017-01-24T11:30:17.598Z,0.22
2017-01-24T11:31:17.307Z,0.23
2017-01-24T11:32:16.914Z,0.21
2017-01-24T11:33:17.511Z,0.28
2017-01-24T11:34:17.653Z,0.28
2017-01-24T11:35:17.405Z,0.31
2017-01-24T11:36:17.645Z,0.37
2017-01-24T11:37:17.059Z,0.36
2017-01-24T11:38:17.113Z,0.41
2017-01-24T11:39:18.143Z,0.4
2017-01-24T11:40:17.964Z,0.43
2017-01-24T11:41:18.290Z,0.55
2017-01-24T11:42:17.339Z,0.49
2017-01-24T11:43:17.934Z,0.46
2017-01-24T11:44:17.133Z,0.46
2017-01-24T11:45:17.326Z,0.46
2017-01-24T11:46:17.957Z,0.55
2017-01-24T11:47:18.355Z,0.4
2017-01-24T11:48:17.341Z,0.6
2017-01-24T11:49:17.312Z,0.63
2017-01-24T11:50:17.748Z,0.65
2017-01-24T11:51:17.933Z,0.69
2017-01-24T11:52:18.107Z,0.69
2017-01-24T11:53:17.088Z,0.74
2017-01-24T11:54:17.772Z,0.69
2017-01-24T11:55:17.443Z,0.63
2017-01-24T11:56:18.332Z,0.55
2017-01-24T11:57:18.047Z,0.56
2017-01-24T11:58:17.642Z,0.56
2017-01-24T11:59:17.249Z,0.56
2017-01-24T12:00:17.611Z,0.62
2017-01-24T12:01:17.644Z,0.62
2017-01-24T12:02:17.903Z,0.65
2017-01-24T12:03:18.144Z,0.49
2017-01-24T12:04:17.534Z,0.59
2017-01-24T12:05:18.364Z,0.52
2017-01-24T12:06:17.398Z,0.55
2017-01-24T12:07:17.317Z,0.5
2017-01-24T12:08:17.643Z,0.56
2017-01-24T12:09:18.098Z,0.55
2017-01-24T12:10:18.411Z,0.49
2017-01-24T12:11:17.567Z,0.6
2017-01-24T12:12:18.312Z,0.52
2017-01-24T12:13:18.322Z,0.63
2017-01-24T12:14:18.534Z,0.66
2017-01-24T12:15:19.043Z,0.7
2017-01-24T12:16:18.575Z,0.65
2017-01-24T12:17:18.698Z,0.66
2017-01-24T12:18:17.431Z,0.69
2017-01-24T12:19:17.421Z,0.7
2017-01-24T12:20:17.631Z,0.73
2017-01-24T12:21:18.094Z,0.58
2017-01-24T12:22:17.775Z,0.68
2017-01-24T12:23:17.843Z,0.65
2017-01-24T12:24:18.792Z,0.63
2017-01-24T12:25:17.718Z,0.63
2017-01-24T12:26:18.091Z,0.69
2017-01-24T12:27:17.990Z,0.69
2017-01-24T12:28:18.157Z,0.68
2017-01-24T12:29:18.139Z,0.73
2017-01-24T12:30:17.511Z,0.69
2017-01-24T12:31:18.677Z,0.63
2017-01-24T12:32:18.684Z,0.62
2017-01-24T12:33:18.430Z,0.52
2017-01-24T12:34:18.564Z,0.63
2017-01-24T12:35:18.092Z,0.76
2017-01-24T12:36:18.823Z,0.76
2017-01-24T12:37:18.602Z,0.69
2017-01-24T12:38:18.920Z,0.69
2017-01-24T12:39:18.033Z,0.8
2017-01-24T12:40:18.407Z,0.77
2017-01-24T12:41:19.021Z,0.84
2017-01-24T12:42:17.798Z,0.81
2017-01-24T12:43:19.854Z,0.86
2017-01-24T12:44:18.924Z,0.78
2017-01-24T12:45:18.669Z,0.84
2017-01-24T12:46:18.794Z,0.77
2017-01-24T12:47:17.867Z,0.83
2017-01-24T12:48:19.483Z,0.8
2017-01-24T12:49:18.709Z,0.81
2017-01-24T12:50:18.676Z,0.91
2017-01-24T12:51:19.074Z,0.87
2017-01-24T12:52:18.470Z,0.99
2017-01-24T12:53:19.295Z,0.99
2017-01-24T12:54:18.443Z,1.04
2017-01-24T12:55:17.974Z,0.99
2017-01-24T12:56:18.452Z,0.98
2017-01-24T12:57:18.398Z,1.05
2017-01-24T12:58:18.238Z,1.02
2017-01-24T12:59:18.535Z,0.98